createdAt,value
2022-12-01T00:01:09.669Z,100940.28
2022-12-01T00:03:36.423Z,100938.72
2022-12-01T00:06:09.689Z,100937.50
2022-12-01T00:08:36.473Z,100936.25
2022-12-01T00:11:12.034Z,100934.94
2022-12-01T00:13:38.683Z,100928.25
2022-12-01T00:16:17.481Z,100939.66
2022-12-01T00:18:44.171Z,100933.66
2022-12-01T00:21:15.192Z,100934.59
2022-12-01T00:23:47.245Z,100924.28
2022-12-01T00:26:14.783Z,100932.97
2022-12-01T00:28:41.287Z,100934.06
2022-12-01T00:31:11.895Z,100935.34
2022-12-01T00:33:39.495Z,100934.88
2022-12-01T00:36:07.257Z,100931.03
2022-12-01T00:38:34.644Z,100937.19
2022-12-01T00:41:01.584Z,100928.34
2022-12-01T00:43:27.978Z,100929.81
2022-12-01T00:45:56.231Z,100927.56
2022-12-01T00:48:23.651Z,100927.41
2022-12-01T00:50:53.847Z,100921.88
2022-12-01T00:53:21.093Z,100922.44
2022-12-01T00:55:47.523Z,100927.50
2022-12-01T00:58:13.890Z,100929.81
2022-12-01T01:00:40.325Z,100929.81
2022-12-01T01:03:07.623Z,100936.03
2022-12-01T01:05:37.960Z,100944.81
2022-12-01T01:08:08.450Z,100931.97
2022-12-01T01:10:41.581Z,100927.66
2022-12-01T01:13:08.014Z,100935.09
2022-12-01T01:15:34.802Z,100934.66
2022-12-01T01:18:01.926Z,100941.19
2022-12-01T01:20:28.538Z,100937.66
2022-12-01T01:22:54.921Z,100933.94
2022-12-01T01:25:21.474Z,100927.88
2022-12-01T01:27:47.883Z,100947.41
2022-12-01T01:30:14.687Z,100938.72
2022-12-01T01:32:41.045Z,100945.31
2022-12-01T01:35:08.270Z,100939.59
2022-12-01T01:37:34.750Z,100943.84
2022-12-01T01:40:01.117Z,100946.09
2022-12-01T01:42:27.473Z,100950.09
2022-12-01T01:44:56.452Z,100952.72
2022-12-01T01:47:34.645Z,100944.72
2022-12-01T01:50:06.449Z,100945.78
2022-12-01T01:52:36.509Z,100939.63
2022-12-01T01:55:03.499Z,100939.00
2022-12-01T01:57:33.261Z,100941.75
2022-12-01T02:00:05.070Z,100943.28
2022-12-01T02:02:31.734Z,100946.06
2022-12-01T02:05:02.301Z,100950.66
2022-12-01T02:07:28.791Z,100943.66
2022-12-01T02:09:55.774Z,100939.44
2022-12-01T02:12:30.886Z,100937.97
2022-12-01T02:15:04.916Z,100937.91
2022-12-01T02:17:42.035Z,100938.84
2022-12-01T02:20:26.996Z,100931.69
2022-12-01T02:23:05.854Z,100936.16
2022-12-01T02:25:57.652Z,100939.56
2022-12-01T02:29:02.133Z,100942.06
2022-12-01T02:31:44.783Z,100935.69
2022-12-01T02:34:31.119Z,100934.56
2022-12-01T02:37:08.453Z,100936.28
2022-12-01T02:39:43.993Z,100948.25
2022-12-01T02:42:43.290Z,100943.19
2022-12-01T02:45:13.941Z,100940.72
2022-12-01T02:47:41.818Z,100949.63
2022-12-01T02:50:10.121Z,100955.22
2022-12-01T02:52:38.760Z,100956.06
2022-12-01T02:55:05.465Z,100950.44
2022-12-01T02:57:32.264Z,100944.78
2022-12-01T03:00:00.044Z,100945.75
2022-12-01T03:02:48.832Z,100946.50
2022-12-01T03:05:33.676Z,100952.00
2022-12-01T03:08:30.884Z,100949.31
2022-12-01T03:10:59.448Z,100948.31
2022-12-01T03:13:50.666Z,100945.22
2022-12-01T03:16:41.653Z,100946.94
2022-12-01T03:19:11.416Z,100933.78
2022-12-01T03:21:51.964Z,100929.03
2022-12-01T03:24:21.808Z,100932.50
2022-12-01T03:26:56.792Z,100935.13
2022-12-01T03:29:31.272Z,100937.88
2022-12-01T03:32:10.699Z,100941.91
2022-12-01T03:34:41.141Z,100942.31
2022-12-01T03:37:15.209Z,100941.97
2022-12-01T03:39:43.709Z,100951.09
2022-12-01T03:42:45.423Z,100943.09
2022-12-01T03:45:17.749Z,100944.94
2022-12-01T03:47:44.469Z,100944.53
2022-12-01T03:50:14.012Z,100946.94
2022-12-01T03:52:54.522Z,100946.56
2022-12-01T03:55:26.376Z,100941.56
2022-12-01T03:58:16.888Z,100953.25
2022-12-01T04:00:44.945Z,100944.94
2022-12-01T04:03:22.347Z,100955.13
2022-12-01T04:05:48.869Z,100951.72
2022-12-01T04:08:15.300Z,100956.22
2022-12-01T04:10:41.769Z,100953.13
2022-12-01T04:13:15.939Z,100962.19
2022-12-01T04:15:43.249Z,100955.38
2022-12-01T04:18:09.623Z,100952.75
2022-12-01T04:20:35.997Z,100955.22
2022-12-01T04:23:02.342Z,100954.47
2022-12-01T04:25:28.737Z,100955.38
2022-12-01T04:27:55.195Z,100953.41
2022-12-01T04:30:21.541Z,100962.47
2022-12-01T04:32:47.935Z,100952.00
2022-12-01T04:35:14.291Z,100951.16
2022-12-01T04:37:41.017Z,100949.59
2022-12-01T04:40:07.939Z,100950.44
2022-12-01T04:42:34.514Z,100952.31
2022-12-01T04:45:00.956Z,100949.59
2022-12-01T04:47:27.438Z,100954.91
2022-12-01T04:49:54.404Z,100959.22
2022-12-01T04:52:20.789Z,100954.91
2022-12-01T04:54:47.164Z,100953.97
2022-12-01T04:57:13.523Z,100957.72
2022-12-01T04:59:39.889Z,100955.13
2022-12-01T05:02:06.374Z,100953.13
2022-12-01T05:04:34.067Z,100957.25
2022-12-01T05:07:00.403Z,100952.41
2022-12-01T05:09:26.769Z,100954.41
2022-12-01T05:11:53.273Z,100957.00
2022-12-01T05:14:19.612Z,100958.28
2022-12-01T05:16:46.096Z,100969.22
2022-12-01T05:19:31.246Z,100966.03
2022-12-01T05:21:57.611Z,100968.28
2022-12-01T05:24:23.981Z,100969.72
2022-12-01T05:26:50.499Z,100968.25
2022-12-01T05:29:16.953Z,100973.78
2022-12-01T05:31:45.223Z,100973.69
2022-12-01T05:34:11.708Z,100970.72
2022-12-01T05:36:38.061Z,100966.56
2022-12-01T05:39:05.088Z,100969.38
2022-12-01T05:41:31.477Z,100971.63
2022-12-01T05:43:57.979Z,100968.41
2022-12-01T05:46:24.416Z,100974.09
2022-12-01T05:48:51.003Z,100978.28
2022-12-01T05:51:17.384Z,100980.25
2022-12-01T05:53:44.124Z,100974.88
2022-12-01T05:56:10.948Z,100973.06
2022-12-01T05:58:37.567Z,100981.66
2022-12-01T06:01:04.031Z,100979.03
2022-12-01T06:03:30.399Z,100982.53
2022-12-01T06:05:56.839Z,100992.84
2022-12-01T06:08:23.368Z,100992.25
2022-12-01T06:10:49.773Z,100986.72
2022-12-01T06:13:16.115Z,100984.34
2022-12-01T06:15:42.547Z,100982.78
2022-12-01T06:18:09.350Z,100990.69
2022-12-01T06:20:35.864Z,100982.84
2022-12-01T06:23:02.635Z,100981.44
2022-12-01T06:25:29.015Z,100991.69
2022-12-01T06:27:57.333Z,100988.34
2022-12-01T06:30:24.115Z,100990.13
2022-12-01T06:32:50.532Z,100996.94
2022-12-01T06:35:17.045Z,100994.56
2022-12-01T06:37:43.387Z,100998.06
2022-12-01T06:40:10.686Z,100997.03
2022-12-01T06:42:37.062Z,101000.09
2022-12-01T06:45:03.638Z,101003.47
2022-12-01T06:47:30.037Z,101013.16
2022-12-01T06:49:56.418Z,101003.13
2022-12-01T06:52:22.755Z,101010.75
2022-12-01T06:54:49.213Z,101005.81
2022-12-01T06:57:15.889Z,101011.31
2022-12-01T06:59:42.632Z,101007.88
2022-12-01T07:02:11.750Z,101013.88
2022-12-01T07:04:38.169Z,101005.16
2022-12-01T07:07:05.876Z,101011.19
2022-12-01T07:09:32.265Z,101007.22
2022-12-01T07:11:58.642Z,101017.38
2022-12-01T07:14:26.716Z,101027.78
2022-12-01T07:16:53.477Z,101024.03
2022-12-01T07:19:20.339Z,101027.41
2022-12-01T07:21:46.751Z,101026.72
2022-12-01T07:24:13.249Z,101041.00
2022-12-01T07:26:41.066Z,101028.69
2022-12-01T07:29:09.160Z,101039.34
2022-12-01T07:31:36.806Z,101029.47
2022-12-01T07:34:04.275Z,101030.53
2022-12-01T07:36:31.006Z,101038.38
2022-12-01T07:38:57.510Z,101032.38
2022-12-01T07:41:24.417Z,101031.53
2022-12-01T07:43:51.243Z,101035.63
2022-12-01T07:46:23.181Z,101034.81
2022-12-01T07:48:51.506Z,101032.13
2022-12-01T07:51:18.388Z,101030.25
2022-12-01T07:53:46.279Z,101025.56
2022-12-01T07:56:12.803Z,101029.09
2022-12-01T07:58:39.412Z,101037.03
2022-12-01T08:01:08.306Z,101035.41
2022-12-01T08:03:35.479Z,101042.66
2022-12-01T08:06:02.955Z,101033.84
2022-12-01T08:08:30.489Z,101037.28
2022-12-01T08:11:00.669Z,101039.91
2022-12-01T08:13:27.147Z,101031.66
2022-12-01T08:15:53.777Z,101039.03
2022-12-01T08:18:20.266Z,101036.84
2022-12-01T08:20:46.633Z,101042.09
2022-12-01T08:23:13.089Z,101043.47
2022-12-01T08:25:39.444Z,101038.84
2022-12-01T08:28:05.879Z,101040.13
2022-12-01T08:30:32.313Z,101043.09
2022-12-01T08:32:58.918Z,101039.69
2022-12-01T08:35:25.767Z,101043.53
2022-12-01T08:37:53.496Z,101046.06
2022-12-01T08:40:21.099Z,101045.38
2022-12-01T08:42:47.712Z,101037.09
2022-12-01T08:45:14.330Z,101047.03
2022-12-01T08:47:40.727Z,101038.16
2022-12-01T08:50:07.571Z,101036.81
2022-12-01T08:52:34.842Z,101047.91
2022-12-01T08:55:01.619Z,101048.09
2022-12-01T08:57:31.215Z,101043.38
2022-12-01T08:59:57.665Z,101044.34
2022-12-01T09:02:24.742Z,101048.75
2022-12-01T09:04:51.416Z,101048.75
2022-12-01T09:07:22.977Z,101046.19
2022-12-01T09:09:52.894Z,101047.13
2022-12-01T09:12:19.740Z,101048.59
2022-12-01T09:14:48.217Z,101053.75
2022-12-01T09:17:15.217Z,101046.81
2022-12-01T09:19:42.437Z,101056.94
2022-12-01T09:22:09.601Z,101051.16
2022-12-01T09:24:36.203Z,101064.09
2022-12-01T09:27:03.385Z,101057.22
2022-12-01T09:29:30.431Z,101053.22
2022-12-01T09:31:59.680Z,101044.59
2022-12-01T09:34:27.088Z,101051.13
2022-12-01T09:36:58.226Z,101041.53
2022-12-01T09:39:25.320Z,101044.44
2022-12-01T09:42:09.061Z,101044.44
2022-12-01T09:44:43.819Z,101040.66
2022-12-01T09:47:33.777Z,101053.09
2022-12-01T09:50:21.827Z,101041.81
2022-12-01T09:52:57.864Z,101045.72
2022-12-01T09:55:25.690Z,101043.41
2022-12-01T09:57:55.540Z,101039.19
2022-12-01T10:00:22.993Z,101042.22
2022-12-01T10:03:03.104Z,101044.22
2022-12-01T10:06:02.988Z,101038.13
2022-12-01T10:08:36.755Z,101038.97
2022-12-01T10:11:34.404Z,101037.06
2022-12-01T10:14:01.344Z,101035.16
2022-12-01T10:16:37.482Z,101031.78
2022-12-01T10:19:19.677Z,101035.31
2022-12-01T10:22:07.396Z,101031.78
2022-12-01T10:24:52.492Z,101029.78
2022-12-01T10:27:38.977Z,101027.09
2022-12-01T10:30:10.026Z,101021.66
2022-12-01T10:32:42.845Z,101025.09
2022-12-01T10:35:27.198Z,101024.13
2022-12-01T10:38:00.961Z,101021.97
2022-12-01T10:40:28.563Z,101016.91
2022-12-01T10:42:55.634Z,101012.66
2022-12-01T10:45:27.903Z,101018.59
2022-12-01T10:48:15.086Z,101015.34
2022-12-01T10:50:43.736Z,101010.59
2022-12-01T10:53:22.260Z,101008.13
2022-12-01T10:55:51.408Z,101012.09
2022-12-01T10:58:19.333Z,101013.50
2022-12-01T11:01:00.571Z,101011.78
2022-12-01T11:03:31.486Z,101005.88
2022-12-01T11:06:01.670Z,101012.56
2022-12-01T11:08:41.508Z,101008.28
2022-12-01T11:11:29.880Z,101012.09
2022-12-01T11:13:58.877Z,101007.50
2022-12-01T11:16:35.579Z,101003.81
2022-12-01T11:19:25.110Z,101013.34
2022-12-01T11:21:56.620Z,100998.41
2022-12-01T11:24:30.640Z,101001.56
2022-12-01T11:26:58.890Z,101009.19
2022-12-01T11:29:28.064Z,101001.34
2022-12-01T11:31:55.039Z,101001.63
2022-12-01T11:34:24.252Z,101002.75
2022-12-01T11:36:54.898Z,100996.25
2022-12-01T11:39:27.171Z,100996.88
2022-12-01T11:41:59.422Z,101001.34
2022-12-01T11:44:50.197Z,100994.41
2022-12-01T11:47:23.080Z,100990.66
2022-12-01T11:49:59.751Z,100982.56
2022-12-01T11:52:30.508Z,100983.66
2022-12-01T11:54:58.284Z,100983.50
2022-12-01T11:57:34.069Z,100984.28
2022-12-01T12:00:01.865Z,100976.84
2022-12-01T12:03:06.631Z,100979.13
2022-12-01T12:05:57.676Z,100980.91
2022-12-01T12:08:48.171Z,100969.81
2022-12-01T12:11:19.082Z,100969.50
2022-12-01T12:13:51.702Z,100977.06
2022-12-01T12:16:41.459Z,100977.50
2022-12-01T12:19:22.432Z,100968.75
2022-12-01T12:22:36.977Z,100980.22
2022-12-01T12:25:25.283Z,100973.13
2022-12-01T12:28:17.066Z,100963.50
2022-12-01T12:31:14.813Z,100964.34
2022-12-01T12:33:50.137Z,100964.41
2022-12-01T12:36:32.271Z,100963.56
2022-12-01T12:39:20.284Z,100966.50
2022-12-01T12:41:55.803Z,100970.75
2022-12-01T12:44:47.059Z,100964.44
2022-12-01T12:47:25.560Z,100968.28
2022-12-01T12:50:00.951Z,100970.38
2022-12-01T12:52:35.373Z,100966.75
2022-12-01T12:55:26.208Z,100962.25
2022-12-01T12:58:06.600Z,100959.66
2022-12-01T13:00:43.373Z,100965.34
2022-12-01T13:03:19.735Z,100961.38
2022-12-01T13:05:57.570Z,100955.97
2022-12-01T13:08:34.034Z,100960.34
2022-12-01T13:11:15.996Z,100962.88
2022-12-01T13:13:54.341Z,100963.66
2022-12-01T13:16:58.992Z,100960.50
2022-12-01T13:19:37.158Z,100955.19
2022-12-01T13:22:05.858Z,100954.03
2022-12-01T13:24:32.614Z,100958.44
2022-12-01T13:27:05.156Z,100956.88
2022-12-01T13:29:43.900Z,100958.91
2022-12-01T13:32:28.522Z,100959.50
2022-12-01T13:34:55.269Z,100957.03
2022-12-01T13:37:33.571Z,100963.97
2022-12-01T13:40:20.296Z,100960.59
2022-12-01T13:43:14.575Z,100964.44
2022-12-01T13:45:41.436Z,100962.72
2022-12-01T13:48:28.440Z,100965.72
2022-12-01T13:50:56.471Z,100963.66
2022-12-01T13:53:23.044Z,100962.97
2022-12-01T13:55:57.617Z,100969.91
2022-12-01T13:58:45.992Z,100958.59
2022-12-01T14:01:21.831Z,100956.88
2022-12-01T14:03:51.601Z,100955.66
2022-12-01T14:06:51.394Z,100952.25
2022-12-01T14:09:28.172Z,100957.44
2022-12-01T14:12:04.152Z,100951.66
2022-12-01T14:14:39.963Z,100952.94
2022-12-01T14:17:21.736Z,100952.13
2022-12-01T14:19:53.568Z,100955.81
2022-12-01T14:22:41.892Z,100941.97
2022-12-01T14:25:34.875Z,100944.03
2022-12-01T14:28:03.295Z,100944.09
2022-12-01T14:30:50.305Z,100952.88
2022-12-01T14:33:43.205Z,100948.91
2022-12-01T14:36:18.424Z,100952.72
2022-12-01T14:38:47.127Z,100943.19
2022-12-01T14:41:36.217Z,100947.81
2022-12-01T14:44:21.765Z,100947.19
2022-12-01T14:47:09.829Z,100947.97
2022-12-01T14:49:45.246Z,100949.03
2022-12-01T14:52:40.723Z,100946.34
2022-12-01T14:55:23.682Z,100944.09
2022-12-01T14:57:52.617Z,100933.56
2022-12-01T15:00:25.094Z,100938.19
2022-12-01T15:03:01.098Z,100935.56
2022-12-01T15:05:30.189Z,100929.41
2022-12-01T15:11:20.755Z,100933.22
2022-12-01T15:13:52.581Z,100933.47
2022-12-01T15:16:22.048Z,100932.09
2022-12-01T15:18:49.565Z,100931.28
2022-12-01T15:21:26.436Z,100935.81
2022-12-01T15:23:58.933Z,100937.78
2022-12-01T15:26:31.868Z,100929.03
2022-12-01T15:29:19.043Z,100932.41
2022-12-01T15:31:50.141Z,100927.25
2022-12-01T15:34:27.048Z,100931.81
2022-12-01T15:36:54.366Z,100935.81
2022-12-01T15:39:33.320Z,100937.94
2022-12-01T15:42:00.505Z,100941.50
2022-12-01T15:44:35.993Z,100942.72
2022-12-01T15:47:44.203Z,100937.16
2022-12-01T15:50:33.316Z,100944.47
2022-12-01T15:53:22.175Z,100935.00
2022-12-01T15:55:55.549Z,100935.09
2022-12-01T15:58:30.147Z,100938.94
2022-12-01T16:01:02.032Z,100937.47
2022-12-01T16:03:29.095Z,100940.94
2022-12-01T16:05:56.168Z,100938.31
2022-12-01T16:08:26.459Z,100941.75
2022-12-01T16:11:13.156Z,100939.25
2022-12-01T16:14:20.612Z,100944.84
2022-12-01T16:16:48.503Z,100948.25
2022-12-01T16:19:17.995Z,100943.63
2022-12-01T16:21:47.442Z,100950.06
2022-12-01T16:24:28.009Z,100945.47
2022-12-01T16:26:56.610Z,100945.31
2022-12-01T16:29:24.814Z,100944.53
2022-12-01T16:32:18.882Z,100950.53
2022-12-01T16:34:46.346Z,100946.56
2022-12-01T16:37:13.769Z,100937.81
2022-12-01T16:39:40.144Z,100935.66
2022-12-01T16:42:06.697Z,100943.88
2022-12-01T16:44:33.153Z,100938.09
2022-12-01T16:46:59.560Z,100948.00
2022-12-01T16:49:25.914Z,100951.47
2022-12-01T16:51:56.797Z,100940.22
2022-12-01T16:54:23.867Z,100946.53
2022-12-01T16:56:52.944Z,100951.28
2022-12-01T16:59:20.046Z,100951.13
2022-12-01T17:01:46.499Z,100947.75
2022-12-01T17:04:13.106Z,100949.50
2022-12-01T17:06:39.565Z,100950.34
2022-12-01T17:09:06.028Z,100953.75
2022-12-01T17:11:32.844Z,100945.91
2022-12-01T17:13:59.233Z,100954.53
2022-12-01T17:16:25.739Z,100957.28
2022-12-01T17:18:52.288Z,100945.91
2022-12-01T17:21:18.986Z,100943.94
2022-12-01T17:23:45.376Z,100947.66
2022-12-01T17:26:15.712Z,100943.88
2022-12-01T17:28:42.242Z,100949.47
2022-12-01T17:31:09.384Z,100942.19
2022-12-01T17:33:36.271Z,100941.41
2022-12-01T17:36:06.492Z,100943.63
2022-12-01T17:38:38.289Z,100943.63
2022-12-01T17:41:07.888Z,100943.09
2022-12-01T17:43:35.584Z,100949.59
2022-12-01T17:46:02.802Z,100949.41
2022-12-01T17:48:29.515Z,100950.47
2022-12-01T17:50:56.051Z,100948.06
2022-12-01T17:53:22.661Z,100952.38
2022-12-01T17:55:49.089Z,100945.41
2022-12-01T17:58:18.012Z,100946.72
2022-12-01T18:00:44.376Z,100950.63
2022-12-01T18:03:10.773Z,100949.16
2022-12-01T18:05:37.207Z,100957.59
2022-12-01T18:08:03.840Z,100955.41
2022-12-01T18:10:30.247Z,100949.84
2022-12-01T18:12:56.641Z,100959.59
2022-12-01T18:15:25.866Z,100955.91
2022-12-01T18:17:54.791Z,100954.25
2022-12-01T18:20:21.357Z,100954.09
2022-12-01T18:22:48.337Z,100961.28
2022-12-01T18:25:14.813Z,100955.78
2022-12-01T18:27:41.455Z,100953.41
2022-12-01T18:30:08.415Z,100953.34
2022-12-01T18:32:34.812Z,100948.09
2022-12-01T18:35:01.224Z,100949.47
2022-12-01T18:37:27.672Z,100946.59
2022-12-01T18:39:57.397Z,100947.44
2022-12-01T18:42:24.365Z,100941.91
2022-12-01T18:44:51.179Z,100944.06
2022-12-01T18:47:17.823Z,100945.59
2022-12-01T18:49:44.175Z,100947.72
2022-12-01T18:52:10.592Z,100943.47
2022-12-01T18:54:37.009Z,100941.06
2022-12-01T18:57:03.505Z,100940.56
2022-12-01T18:59:30.022Z,100935.63
2022-12-01T19:01:56.523Z,100931.47
2022-12-01T19:04:23.010Z,100932.72
2022-12-01T19:06:49.437Z,100937.34
2022-12-01T19:09:16.468Z,100931.34
2022-12-01T19:11:43.260Z,100928.63
2022-12-01T19:14:16.331Z,100937.16
2022-12-01T19:16:43.098Z,100943.19
2022-12-01T19:19:10.119Z,100927.66
2022-12-01T19:21:36.892Z,100929.81
2022-12-01T19:24:03.371Z,100925.03
2022-12-01T19:26:29.708Z,100932.59
2022-12-01T19:28:56.211Z,100924.91
2022-12-01T19:31:24.222Z,100929.13
2022-12-01T19:33:52.585Z,100922.09
2022-12-01T19:36:21.798Z,100924.63
2022-12-01T19:38:48.579Z,100932.25
2022-12-01T19:41:15.505Z,100925.50
2022-12-01T19:43:42.493Z,100925.94
2022-12-01T19:46:20.341Z,100932.09
2022-12-01T19:48:48.041Z,100923.03
2022-12-01T19:51:23.978Z,100929.16
2022-12-01T19:53:50.645Z,100924.72
2022-12-01T19:56:17.683Z,100923.78
2022-12-01T19:58:44.324Z,100923.47
2022-12-01T20:01:13.022Z,100919.31
2022-12-01T20:03:40.648Z,100920.84
2022-12-01T20:06:10.137Z,100923.31
2022-12-01T20:08:36.784Z,100924.56
2022-12-01T20:11:04.533Z,100923.88
2022-12-01T20:13:32.595Z,100926.09
2022-12-01T20:16:06.596Z,100920.59
2022-12-01T20:18:33.451Z,100925.34
2022-12-01T20:21:07.818Z,100919.50
2022-12-01T20:23:35.532Z,100918.88
2022-12-01T20:26:04.005Z,100915.63
2022-12-01T20:28:31.571Z,100918.25
2022-12-01T20:30:58.249Z,100922.56
2022-12-01T20:33:26.164Z,100920.28
2022-12-01T20:35:52.695Z,100913.97
2022-12-01T20:38:24.296Z,100920.88
2022-12-01T20:40:53.777Z,100913.91
2022-12-01T20:43:20.239Z,100911.81
2022-12-01T20:45:46.820Z,100916.19
2022-12-01T20:48:13.621Z,100915.28
2022-12-01T20:50:40.232Z,100916.22
2022-12-01T20:53:06.884Z,100910.72
2022-12-01T20:55:35.729Z,100909.97
2022-12-01T20:58:02.863Z,100902.19
2022-12-01T21:00:30.328Z,100905.50
2022-12-01T21:02:59.930Z,100898.28
2022-12-01T21:05:27.300Z,100894.28
2022-12-01T21:07:54.707Z,100891.28
2022-12-01T21:10:21.302Z,100892.88
2022-12-01T21:13:10.353Z,100892.56
2022-12-01T21:15:50.883Z,100893.56
2022-12-01T21:18:29.092Z,100893.19
2022-12-01T21:21:03.599Z,100891.13
2022-12-01T21:23:30.271Z,100892.97
2022-12-01T21:25:57.278Z,100898.34
2022-12-01T21:28:25.379Z,100901.66
2022-12-01T21:31:14.481Z,100903.81
2022-12-01T21:33:41.920Z,100903.97
2022-12-01T21:36:19.776Z,100905.13
2022-12-01T21:38:53.779Z,100901.66
2022-12-01T21:41:27.593Z,100905.66
2022-12-01T21:44:16.074Z,100902.66
2022-12-01T21:46:42.801Z,100900.56
2022-12-01T21:49:19.669Z,100904.94
2022-12-01T21:51:47.636Z,100903.19
2022-12-01T21:54:20.587Z,100893.81
2022-12-01T21:56:52.177Z,100887.81
2022-12-01T21:59:23.091Z,100886.88
2022-12-01T22:01:54.019Z,100879.78
2022-12-01T22:04:25.847Z,100891.53
2022-12-01T22:06:57.649Z,100886.88
2022-12-01T22:09:29.297Z,100887.78
2022-12-01T22:11:58.525Z,100886.34
2022-12-01T22:14:32.409Z,100888.31
2022-12-01T22:17:11.277Z,100887.03
2022-12-01T22:19:39.980Z,100888.41
2022-12-01T22:22:09.719Z,100878.78
2022-12-01T22:24:46.259Z,100888.41
2022-12-01T22:27:12.967Z,100876.44
2022-12-01T22:29:43.272Z,100890.41
2022-12-01T22:32:12.725Z,100887.63
2022-12-01T22:34:40.662Z,100886.88
2022-12-01T22:37:17.289Z,100878.09
2022-12-01T22:39:46.299Z,100879.47
2022-12-01T22:42:20.557Z,100882.28
2022-12-01T22:44:47.027Z,100870.28
2022-12-01T22:47:15.629Z,100879.03
2022-12-01T22:49:42.541Z,100878.88
2022-12-01T22:52:28.304Z,100874.09
2022-12-01T22:54:55.007Z,100873.66
2022-12-01T22:57:34.861Z,100866.75
2022-12-01T23:00:14.022Z,100862.19
2022-12-01T23:02:40.464Z,100866.44
2022-12-01T23:05:33.154Z,100863.34
2022-12-01T23:08:00.228Z,100870.13
2022-12-01T23:10:33.651Z,100859.38
2022-12-01T23:13:08.618Z,100863.50
2022-12-01T23:15:46.141Z,100854.13
2022-12-01T23:18:23.470Z,100855.97
2022-12-01T23:20:53.178Z,100842.44
2022-12-01T23:23:21.796Z,100847.28
2022-12-01T23:25:50.414Z,100846.03
2022-12-01T23:28:16.930Z,100840.06
2022-12-01T23:30:45.092Z,100834.16
2022-12-01T23:33:26.159Z,100838.75
2022-12-01T23:35:55.438Z,100843.16
2022-12-01T23:38:28.611Z,100836.94
2022-12-01T23:40:58.751Z,100833.69
2022-12-01T23:43:32.958Z,100836.16
2022-12-01T23:46:05.902Z,100826.31
2022-12-01T23:48:44.930Z,100833.22
2022-12-01T23:51:19.783Z,100823.22
2022-12-01T23:53:46.827Z,100824.75
2022-12-01T23:56:23.250Z,100821.53
2022-12-01T23:58:51.078Z,100827.84
